Time;durP1;ratioP1;P1;durP2;ratioP2;P2;SDS_P1;SDS_P2;PMS_P1;PMS_P2;Temp;Humidity;BMP_temperature;BMP_pressure;BME280_temperature;BME280_humidity;BME280_pressure;Samples;Min_cycle;Max_cycle;Signal;HPM_P1;HPM_P2
2023/06/15 00:00:01;;;;;;;5.35;4.28;;;18.80;42.00;;;20.61;34.71;97553.31;5086798;28;20044;-50
2023/06/15 00:02:40;;;;;;;4.18;3.75;;;18.80;41.80;;;20.61;34.87;97551.41;5073596;28;20048;-53
2023/06/15 00:05:08;;;;;;;6.10;3.88;;;18.80;42.10;;;20.62;34.74;97550.34;5086477;28;20055;-50
2023/06/15 00:07:36;;;;;;;5.82;4.28;;;18.80;42.10;;;20.62;35.03;97552.25;5068856;28;20036;-51
2023/06/15 00:10:05;;;;;;;5.93;4.30;;;18.70;42.40;;;20.60;35.03;97555.16;5086451;28;20048;-49
2023/06/15 00:12:33;;;;;;;8.40;4.32;;;18.80;42.50;;;20.60;35.04;97559.75;5060304;28;20040;-49
2023/06/15 00:15:01;;;;;;;4.53;3.88;;;18.70;42.60;;;20.59;35.27;97553.53;5061780;28;20047;-50
2023/06/15 00:17:30;;;;;;;5.82;4.63;;;18.80;42.70;;;20.57;35.26;97563.72;5084861;28;20052;-50
2023/06/15 00:20:00;;;;;;;5.45;4.53;;;18.70;42.90;;;20.54;35.41;97561.44;5086320;28;20055;-48
2023/06/15 00:22:28;;;;;;;4.82;4.32;;;18.60;42.90;;;20.52;35.38;97566.25;5083702;28;20036;-48
2023/06/15 00:24:56;;;;;;;4.18;3.78;;;18.60;43.00;;;20.49;35.52;97565.88;5082461;28;20052;-49
2023/06/15 00:27:24;;;;;;;5.47;4.10;;;18.50;43.30;;;20.44;35.50;97563.88;5083906;28;20059;-48
2023/06/15 00:29:52;;;;;;;4.72;4.30;;;18.50;43.30;;;20.44;35.54;97566.56;5061694;28;20044;-49
2023/06/15 00:32:20;;;;;;;5.68;3.80;;;18.50;43.50;;;20.43;35.51;97567.63;5056645;28;20053;-48
2023/06/15 00:34:47;;;;;;;5.75;3.50;;;18.50;43.60;;;20.39;35.76;97558.31;5062930;28;20063;-48
2023/06/15 00:37:15;;;;;;;4.88;3.58;;;18.50;43.60;;;20.37;35.64;97566.63;5055140;28;20059;-48
2023/06/15 00:39:43;;;;;;;6.03;4.30;;;18.50;43.60;;;20.35;35.84;97557.94;5074354;28;20044;-49
2023/06/15 00:42:10;;;;;;;4.25;3.85;;;18.50;43.90;;;20.35;35.88;97566.03;5055810;28;20518;-52
2023/06/15 00:44:38;;;;;;;6.07;4.65;;;18.50;43.60;;;20.34;35.77;97569.00;5047710;28;20455;-48
2023/06/15 00:47:06;;;;;;;4.50;4.03;;;18.40;43.50;;;20.30;35.94;97565.91;5051220;28;20056;-49
2023/06/15 00:49:35;;;;;;;5.07;4.05;;;18.40;43.60;;;20.26;35.73;97570.94;5073173;28;20413;-48
2023/06/15 00:52:03;;;;;;;4.65;3.75;;;18.40;43.50;;;20.24;35.81;97570.34;5074003;28;20492;-48
2023/06/15 00:54:33;;;;;;;4.78;4.10;;;18.40;43.50;;;20.18;36.37;97565.84;5055876;28;20138;-48
2023/06/15 00:57:01;;;;;;;6.07;4.70;;;18.30;43.80;;;20.13;36.04;97572.97;5055751;28;20064;-50
2023/06/15 00:59:31;;;;;;;5.28;3.90;;;18.30;44.00;;;20.09;36.21;97569.06;5055122;28;20056;-49
2023/06/15 01:01:58;;;;;;;5.18;4.55;;;18.30;43.90;;;20.06;36.21;97568.47;5080042;28;20048;-49
2023/06/15 01:04:26;;;;;;;4.68;4.28;;;18.20;44.10;;;20.05;36.40;97576.78;5080802;28;20055;-49
2023/06/15 01:07:01;;;;;;;5.07;3.92;;;18.20;44.40;;;20.02;36.52;97572.63;5085045;28;20059;-50
2023/06/15 01:09:33;;;;;;;6.55;4.25;;;18.10;44.50;;;19.98;36.52;97570.59;5023213;28;20048;-48
2023/06/15 01:12:11;;;;;;;4.07;3.47;;;18.10;44.80;;;19.96;36.65;97568.13;5040049;28;20522;-50
2023/06/15 01:14:40;;;;;;;4.55;3.90;;;18.00;45.30;;;19.95;36.64;97569.19;5041750;28;20115;-50
2023/06/15 01:17:15;;;;;;;5.57;4.10;;;18.00;44.90;;;19.92;36.73;97558.81;5039863;28;20140;-48
2023/06/15 01:20:08;;;;;;;6.82;4.18;;;18.10;45.30;;;19.89;36.73;97567.38;5047125;28;20056;-48
2023/06/15 01:22:58;;;;;;;7.15;4.25;;;18.00;45.40;;;19.84;36.84;97565.34;5081548;28;20056;-50
2023/06/15 01:25:43;;;;;;;4.22;3.72;;;17.90;46.10;;;19.78;36.97;97560.81;5031168;28;20048;-50
2023/06/15 01:28:13;;;;;;;4.18;3.50;;;17.80;46.30;;;19.73;37.16;97567.94;5080695;28;20045;-48
2023/06/15 01:30:45;;;;;;;5.95;3.83;;;17.80;46.00;;;19.70;37.40;97568.34;5085415;28;20428;-49
2023/06/15 01:33:16;;;;;;;6.20;4.00;;;17.70;46.70;;;19.64;37.36;97562.78;5058915;28;20534;-48
2023/06/15 01:35:43;;;;;;;4.80;4.05;;;17.60;46.30;;;19.59;37.52;97562.63;5068473;28;20043;-50
2023/06/15 01:38:12;;;;;;;4.68;4.25;;;17.60;46.40;;;19.57;37.37;97563.91;5084952;28;20047;-52
2023/06/15 01:40:48;;;;;;;5.07;4.30;;;17.60;46.50;;;19.52;37.51;97564.53;5046977;28;20047;-51
2023/06/15 01:43:22;;;;;;;5.32;4.15;;;17.50;46.40;;;19.48;37.90;97556.09;5030937;28;20129;-51
2023/06/15 01:45:51;;;;;;;;;;;17.60;46.60;;;19.45;37.36;97559.22;5031295;28;20048;-49
2023/06/15 01:48:20;;;;;;;10.82;4.70;;;17.50;48.20;;;19.44;37.78;97559.41;5080781;28;20391;-50
2023/06/15 01:50:49;;;;;;;7.35;4.57;;;17.40;47.20;;;19.38;38.06;97565.69;5069103;28;20044;-49
2023/06/15 01:53:17;;;;;;;6.55;4.28;;;17.30;47.50;;;19.33;37.99;97560.13;5058623;28;20037;-49
2023/06/15 01:55:45;;;;;;;5.85;4.20;;;17.30;47.90;;;19.30;38.20;97557.88;5080865;28;20063;-51
2023/06/15 01:58:16;;;;;;;5.05;4.30;;;17.30;47.50;;;19.27;38.23;97559.16;5054350;28;20091;-48
2023/06/15 02:00:46;;;;;;;5.03;4.10;;;17.30;47.60;;;19.24;38.32;97559.59;5083953;28;20043;-50
2023/06/15 02:03:13;;;;;;;6.25;4.53;;;17.30;47.70;;;19.19;38.38;97559.41;5084362;28;20043;-51
2023/06/15 02:05:41;;;;;;;4.00;3.42;;;17.20;47.70;;;19.15;38.50;97560.88;5081193;28;20041;-49
2023/06/15 02:08:10;;;;;;;5.22;4.13;;;17.10;48.10;;;19.10;38.49;97564.25;5079607;28;20044;-51
2023/06/15 02:10:39;;;;;;;6.15;4.78;;;17.10;48.20;;;19.06;38.71;97563.84;5056145;28;20215;-49
2023/06/15 02:13:10;;;;;;;5.53;4.47;;;17.10;48.20;;;19.03;38.60;97552.66;5059246;28;20047;-50
2023/06/15 02:15:38;;;;;;;5.43;4.07;;;17.10;48.90;;;19.01;38.60;97560.97;5083295;28;20384;-50
2023/06/15 02:18:12;;;;;;;6.07;4.63;;;17.10;48.20;;;18.95;39.08;97561.84;5058602;28;20044;-49
2023/06/15 02:20:44;;;;;;;5.47;4.97;;;17.00;48.70;;;18.92;39.14;97558.75;5064560;28;20496;-49
2023/06/15 02:23:12;;;;;;;5.68;4.68;;;16.90;49.30;;;18.87;38.99;97565.63;5065761;28;20051;-50
2023/06/15 02:25:40;;;;;;;5.20;4.70;;;16.90;48.60;;;18.85;39.20;97559.63;5048237;28;20053;-53
2023/06/15 02:28:08;;;;;;;6.13;4.20;;;16.90;48.80;;;18.84;39.18;97566.06;5083745;28;20044;-51
2023/06/15 02:30:38;;;;;;;4.95;4.45;;;16.90;48.80;;;18.81;39.25;97558.41;5081744;28;20039;-50
2023/06/15 02:33:07;;;;;;;6.28;4.60;;;16.90;49.10;;;18.79;39.17;97557.75;5079813;28;20673;-48
2023/06/15 02:35:36;;;;;;;6.10;4.43;;;16.90;48.80;;;18.79;39.28;97557.75;5055170;28;20071;-51
2023/06/15 02:38:03;;;;;;;6.63;4.03;;;16.90;49.10;;;18.75;39.31;97559.22;5083192;28;20040;-50
2023/06/15 02:40:31;;;;;;;5.15;4.65;;;16.80;48.90;;;18.74;39.35;97557.56;5056524;28;20425;-49
2023/06/15 02:42:59;;;;;;;4.43;4.00;;;16.80;49.10;;;18.70;39.48;97550.94;5060333;28;20055;-52
2023/06/15 02:45:27;;;;;;;5.00;4.53;;;16.80;49.30;;;18.67;39.76;97559.50;5080213;28;20047;-53
2023/06/15 02:47:56;;;;;;;8.40;5.63;;;16.70;49.50;;;18.65;39.55;97559.69;5060862;28;20040;-52
2023/06/15 02:50:23;;;;;;;5.05;4.18;;;16.70;49.20;;;18.61;39.58;97565.72;5052769;28;20067;-53
2023/06/15 02:53:06;;;;;;;5.50;4.77;;;16.60;49.60;;;18.56;39.75;97562.84;5047713;28;20049;-49
2023/06/15 02:55:37;;;;;;;6.30;5.10;;;16.60;49.70;;;18.53;39.89;97561.41;5045797;28;20320;-53
2023/06/15 02:58:05;;;;;;;7.18;4.38;;;16.50;50.10;;;18.50;39.92;97570.75;5064884;28;20055;-48
2023/06/15 03:00:48;;;;;;;7.65;4.40;;;16.50;49.80;;;18.49;39.79;97569.09;5047139;28;20052;-48
2023/06/15 03:03:27;;;;;;;5.45;4.18;;;16.50;49.80;;;18.45;40.04;97569.72;5053276;28;20044;-50
2023/06/15 03:05:56;;;;;;;7.10;4.72;;;16.40;50.30;;;18.41;40.16;97571.19;5045986;28;20416;-49
2023/06/15 03:08:31;;;;;;;8.48;4.93;;;16.40;50.40;;;18.37;40.13;97580.75;5051984;28;20048;-51
2023/06/15 03:11:16;;;;;;;5.75;4.72;;;16.30;50.60;;;18.34;40.40;97576.63;5056243;28;20051;-49
2023/06/15 03:13:43;;;;;;;5.75;4.65;;;16.40;50.80;;;18.30;40.40;97578.91;5081922;28;20044;-48
2023/06/15 03:16:15;;;;;;;5.13;4.32;;;16.30;51.10;;;18.26;40.68;97582.22;5048076;28;20381;-51
2023/06/15 03:18:45;;;;;;;6.00;4.57;;;16.20;51.50;;;18.23;40.86;97580.78;5055875;28;20067;-50
2023/06/15 03:21:14;;;;;;;6.47;4.35;;;16.20;51.80;;;18.17;41.04;97576.25;5058153;28;20044;-49
2023/06/15 03:23:44;;;;;;;6.28;5.22;;;16.10;52.00;;;18.13;41.23;97577.72;5054281;28;20526;-52
2023/06/15 03:26:13;;;;;;;9.70;4.80;;;16.10;52.40;;;18.09;41.19;97573.78;5057575;28;20040;-48
2023/06/15 03:28:41;;;;;;;5.90;4.63;;;16.10;52.30;;;18.07;41.23;97584.78;5054363;28;20067;-47
2023/06/15 03:31:16;;;;;;;5.68;5.00;;;16.00;51.90;;;18.07;41.12;97578.56;5054641;28;20501;-50
2023/06/15 03:33:48;;;;;;;6.15;4.68;;;16.00;51.80;;;18.10;40.89;97583.50;5051383;28;20056;-50
2023/06/15 03:36:18;;;;;;;5.60;4.78;;;16.00;51.90;;;18.08;40.83;97580.22;5052228;28;20508;-50
2023/06/15 03:38:46;;;;;;;6.28;4.57;;;16.10;51.60;;;18.07;41.19;97584.78;5052324;28;20064;-50
2023/06/15 03:41:13;;;;;;;6.03;4.35;;;16.10;51.70;;;18.06;41.28;97591.19;5052208;28;20044;-50
2023/06/15 03:43:41;;;;;;;5.45;4.38;;;16.10;51.90;;;18.04;41.35;97593.25;5054391;28;20056;-51
2023/06/15 03:46:09;;;;;;;6.43;4.68;;;16.10;52.10;;;18.05;41.52;97586.84;5082392;28;20043;-49
2023/06/15 03:48:36;;;;;;;6.45;4.88;;;16.20;52.30;;;18.09;41.31;97595.34;5081308;28;20064;-51
2023/06/15 03:51:05;;;;;;;9.60;6.90;;;16.20;51.80;;;18.13;41.33;97607.34;5052642;28;20071;-50
2023/06/15 03:53:33;;;;;;;7.72;6.35;;;16.30;51.80;;;18.17;41.63;97605.06;5052783;28;20040;-50
2023/06/15 03:56:01;;;;;;;7.50;5.95;;;16.30;51.80;;;18.21;41.64;97609.81;5059994;28;20043;-53
2023/06/15 03:58:29;;;;;;;6.55;5.95;;;16.40;51.90;;;18.25;41.31;97613.75;5048599;28;20045;-52
2023/06/15 04:00:57;;;;;;;7.55;5.03;;;16.40;51.50;;;18.31;41.37;97614.75;5032569;28;20509;-50
2023/06/15 04:03:26;;;;;;;7.53;5.00;;;16.50;51.40;;;18.36;41.61;97614.13;5048519;28;20052;-50
2023/06/15 04:05:54;;;;;;;7.03;4.57;;;16.60;51.70;;;18.40;41.33;97615.38;5079135;28;20503;-50
2023/06/15 04:08:23;;;;;;;5.60;4.20;;;16.60;51.00;;;18.48;41.26;97617.84;5056808;28;20045;-49
2023/06/15 04:10:50;;;;;;;5.38;4.82;;;16.70;50.80;;;18.53;41.19;97609.91;5081152;28;20037;-53
2023/06/15 04:13:18;;;;;;;8.73;4.53;;;16.80;50.70;;;18.60;41.28;97618.81;5058388;28;20036;-52
2023/06/15 04:15:46;;;;;;;5.32;4.82;;;16.90;50.60;;;18.65;41.08;97613.63;5052531;28;20048;-49
2023/06/15 04:18:13;;;;;;;7.10;4.50;;;17.00;50.50;;;18.70;41.13;97615.66;5071065;28;20044;-49
2023/06/15 04:20:41;;;;;;;5.90;4.65;;;17.10;50.60;;;18.73;41.11;97617.94;5052261;28;20060;-52
2023/06/15 04:23:10;;;;;;;6.03;4.60;;;17.00;50.40;;;18.75;41.10;97617.75;5035966;28;20496;-50
2023/06/15 04:25:40;;;;;;;5.63;4.97;;;17.10;50.30;;;18.78;41.12;97618.13;5052553;28;20049;-48
2023/06/15 04:28:10;;;;;;;5.60;4.72;;;17.10;50.50;;;18.81;41.04;97625.81;5058264;28;20056;-49
2023/06/15 04:30:44;;;;;;;5.70;5.07;;;17.20;50.20;;;18.80;40.86;97628.72;5052860;28;20052;-49
2023/06/15 04:33:15;;;;;;;6.80;5.18;;;17.20;50.20;;;18.79;41.04;97638.66;5058185;28;20036;-49
2023/06/15 04:35:45;;;;;;;6.05;5.00;;;17.10;50.30;;;18.76;41.14;97643.66;5053773;28;20063;-51
2023/06/15 04:38:14;;;;;;;6.20;4.40;;;17.10;51.00;;;18.73;41.42;97647.59;5061779;28;20045;-52
2023/06/15 04:40:46;;;;;;;6.93;5.15;;;17.00;51.20;;;18.70;41.61;97643.44;5056708;28;20307;-48
2023/06/15 04:43:14;;;;;;;7.95;4.63;;;17.00;51.50;;;18.65;41.75;97648.69;5061956;28;20519;-47
2023/06/15 04:45:42;;;;;;;8.13;5.03;;;17.10;51.30;;;18.65;41.82;97651.38;5056250;28;20542;-48
2023/06/15 04:48:11;;;;;;;6.60;4.32;;;17.00;51.20;;;18.68;41.69;97650.94;5057609;28;20361;-50
2023/06/15 04:50:38;;;;;;;6.13;4.75;;;17.00;51.30;;;18.67;41.59;97649.28;5052387;28;20056;-48
2023/06/15 04:53:06;;;;;;;5.28;4.75;;;17.00;51.50;;;18.65;41.64;97654.06;5055607;28;20044;-48
2023/06/15 04:55:34;;;;;;;5.30;4.47;;;17.00;51.00;;;18.59;41.62;97646.84;5055915;28;20045;-51
2023/06/15 04:58:04;;;;;;;5.00;4.50;;;17.00;51.30;;;18.57;41.88;97648.91;5068384;28;20526;-49
2023/06/15 05:00:32;;;;;;;5.88;5.22;;;16.90;51.40;;;18.56;41.94;97660.72;5059276;28;20048;-49
2023/06/15 05:03:02;;;;;;;6.30;5.18;;;17.00;51.50;;;18.50;42.12;97657.00;5055390;28;20048;-48
2023/06/15 05:05:30;;;;;;;6.53;4.78;;;17.00;51.70;;;18.50;42.46;97659.69;5055101;28;20051;-48
2023/06/15 05:07:58;;;;;;;5.35;4.85;;;17.10;51.70;;;18.50;42.45;97659.69;5056924;28;20063;-52
2023/06/15 05:10:26;;;;;;;5.10;4.60;;;17.00;52.20;;;18.54;42.59;97660.09;5050436;28;20043;-49
2023/06/15 05:13:12;;;;;;;5.45;4.90;;;16.90;52.30;;;18.61;42.47;97660.06;5056600;28;20053;-50
2023/06/15 05:15:40;;;;;;;6.78;4.90;;;16.90;52.50;;;18.63;42.50;97655.31;5055296;28;20052;-49
2023/06/15 05:18:09;;;;;;;5.40;4.35;;;16.90;52.60;;;18.64;42.60;97663.19;5062697;28;20043;-50
2023/06/15 05:20:37;;;;;;;5.30;4.68;;;17.00;52.60;;;18.66;42.60;97662.97;5055031;28;20048;-51
2023/06/15 05:23:05;;;;;;;7.07;4.85;;;17.10;52.70;;;18.68;42.49;97664.41;5046857;28;20071;-49
2023/06/15 05:25:33;;;;;;;6.95;5.78;;;17.00;52.50;;;18.68;42.37;97668.97;5054862;28;20059;-51
2023/06/15 05:28:00;;;;;;;5.97;4.90;;;17.00;52.20;;;18.67;42.60;97672.72;5072895;28;20064;-49
2023/06/15 05:30:29;;;;;;;7.35;5.00;;;17.10;52.40;;;18.72;42.57;97675.59;5055192;28;20045;-50
2023/06/15 05:32:57;;;;;;;8.50;5.72;;;17.10;52.30;;;18.77;42.64;97672.28;5056481;28;20055;-53
2023/06/15 05:35:25;;;;;;;7.18;5.38;;;17.10;52.60;;;18.78;42.50;97674.75;5060157;28;20045;-52
2023/06/15 05:37:53;;;;;;;6.07;5.25;;;17.20;51.90;;;18.81;42.29;97677.06;5047387;28;20071;-50
2023/06/15 05:40:20;;;;;;;6.28;5.18;;;17.20;51.80;;;18.85;42.25;97682.88;5066403;28;20066;-48
2023/06/15 05:42:49;;;;;;;9.23;5.22;;;17.20;51.70;;;18.87;42.08;97678.09;5057950;28;20049;-52
2023/06/15 05:45:17;;;;;;;6.15;4.50;;;17.20;51.70;;;18.89;42.25;97687.59;5084792;28;20051;-49
2023/06/15 05:47:45;;;;;;;5.90;4.32;;;17.30;51.90;;;18.93;42.14;97690.72;5064450;28;20048;-51
2023/06/15 05:50:14;;;;;;;6.57;5.07;;;17.30;51.90;;;18.93;42.35;97690.72;5054209;28;20049;-51
2023/06/15 05:52:42;;;;;;;8.15;5.82;;;17.30;52.20;;;18.95;42.46;97693.19;5080699;28;20051;-52
2023/06/15 05:55:09;;;;;;;5.28;4.68;;;17.30;52.00;;;18.95;42.37;97687.81;5062208;28;20047;-47
2023/06/15 05:57:37;;;;;;;6.22;4.68;;;17.40;51.80;;;18.94;42.44;97696.91;5079865;28;20413;-50
2023/06/15 06:00:05;;;;;;;6.18;4.95;;;17.40;52.20;;;18.96;42.84;97694.84;5057456;28;20415;-49
2023/06/15 06:02:43;;;;;;;6.40;4.82;;;17.50;52.30;;;19.01;42.76;97692.34;5085491;28;20423;-49
2023/06/15 06:05:21;;;;;;;5.07;4.50;;;17.40;52.50;;;19.01;42.54;97698.56;5047617;28;20515;-51
2023/06/15 06:07:49;;;;;;;6.47;5.10;;;17.50;52.00;;;19.01;42.42;97701.25;5053727;28;20044;-48
2023/06/15 06:10:18;;;;;;;6.22;4.75;;;17.60;51.60;;;19.02;42.52;97702.91;5053603;28;20522;-49
2023/06/15 06:12:52;;;;;;;7.03;4.57;;;17.60;51.50;;;19.10;42.46;97701.84;5072271;28;20047;-52
2023/06/15 06:15:20;;;;;;;6.25;5.22;;;17.60;51.40;;;19.11;42.32;97702.69;5053906;28;20036;-50
2023/06/15 06:17:48;;;;;;;5.53;5.03;;;17.70;51.10;;;19.15;42.45;97701.19;5053174;28;20044;-49
2023/06/15 06:20:36;;;;;;;5.70;4.43;;;17.70;51.40;;;19.20;42.27;97704.91;5053950;28;20055;-50
2023/06/15 06:23:04;;;;;;;5.18;4.68;;;17.70;51.30;;;19.22;42.14;97707.41;5083299;28;20040;-53
2023/06/15 06:25:31;;;;;;;7.05;4.93;;;17.80;50.90;;;19.18;42.10;97708.88;5083992;28;20047;-49
2023/06/15 06:28:00;;;;;;;4.97;4.43;;;17.80;50.60;;;19.19;42.37;97722.16;5056210;28;20052;-51
2023/06/15 06:30:28;;;;;;;6.95;4.95;;;17.90;51.10;;;19.23;42.42;97711.75;5083755;28;20052;-48
2023/06/15 06:32:56;;;;;;;6.05;4.40;;;17.90;51.20;;;19.24;42.46;97713.41;5081674;28;20051;-48
2023/06/15 06:35:28;;;;;;;5.97;4.93;;;18.00;51.00;;;19.26;42.51;97701.34;5082292;28;20047;-48
2023/06/15 06:37:55;;;;;;;13.73;5.43;;;18.00;51.00;;;19.33;42.43;97701.31;5056178;28;20036;-50
2023/06/15 06:40:25;;;;;;;8.30;5.20;;;18.10;50.90;;;19.39;42.49;97707.75;5065724;28;20032;-50
2023/06/15 06:42:53;;;;;;;7.70;4.68;;;18.10;51.00;;;19.49;42.12;97710.78;5082265;28;20507;-49
2023/06/15 06:45:21;;;;;;;5.72;4.97;;;18.20;50.60;;;19.51;41.87;97707.88;5080041;28;20048;-51
2023/06/15 06:47:48;;;;;;;6.75;4.90;;;18.20;50.20;;;19.56;41.91;97710.72;5079053;28;20048;-53
2023/06/15 06:50:16;;;;;;;5.57;4.95;;;18.20;50.20;;;19.58;41.77;97716.75;5082798;28;20044;-52
2023/06/15 06:52:44;;;;;;;5.28;4.78;;;18.30;49.90;;;19.62;41.73;97716.13;5080304;28;20052;-52
2023/06/15 06:55:11;;;;;;;8.35;5.90;;;18.40;49.70;;;19.67;41.58;97715.44;5084001;28;20043;-50
2023/06/15 06:57:39;;;;;;;5.88;4.60;;;18.40;49.90;;;19.76;41.70;97721.47;5083100;28;20499;-53
2023/06/15 07:00:08;;;;;;;9.02;5.35;;;18.50;49.90;;;19.83;41.61;97716.81;5080420;28;20495;-52
2023/06/15 07:02:36;;;;;;;5.95;4.68;;;18.50;49.70;;;19.88;41.51;97721.59;5079709;28;20049;-49
2023/06/15 07:05:04;;;;;;;8.98;4.85;;;18.60;49.50;;;19.91;41.47;97719.28;5079899;28;20052;-49
2023/06/15 07:07:32;;;;;;;5.43;4.90;;;18.60;49.40;;;19.91;41.31;97716.56;5081790;28;20514;-50
2023/06/15 07:09:59;;;;;;;6.72;4.90;;;18.60;49.40;;;19.97;41.32;97722.97;5081513;28;20052;-48
2023/06/15 07:12:27;;;;;;;6.25;4.40;;;18.70;49.60;;;20.02;41.34;97723.94;5079537;28;20041;-52
2023/06/15 07:14:55;;;;;;;7.10;4.93;;;18.80;49.40;;;20.06;41.35;97725.19;5080395;28;20067;-52
2023/06/15 07:17:23;;;;;;;7.75;5.38;;;18.80;49.40;;;20.13;41.06;97721.59;5082607;28;20043;-52
2023/06/15 07:19:50;;;;;;;5.40;4.75;;;18.90;48.80;;;20.16;41.30;97722.00;5082126;28;20051;-51
2023/06/15 07:22:18;;;;;;;6.28;5.68;;;19.00;49.00;;;20.19;41.07;97712.59;5079907;28;20045;-49
2023/06/15 07:24:45;;;;;;;7.85;4.97;;;19.00;48.80;;;20.19;41.11;97712.59;5053797;28;20052;-48
2023/06/15 07:27:13;;;;;;;7.60;5.15;;;19.00;48.90;;;20.17;40.71;97714.69;5081795;28;20062;-51
2023/06/15 07:29:41;;;;;;;6.60;4.68;;;19.00;48.30;;;20.25;40.72;97717.13;5058132;28;20615;-50
2023/06/15 07:32:09;;;;;;;6.57;5.38;;;19.10;48.10;;;20.33;40.63;97726.81;5081979;28;20051;-53
2023/06/15 07:34:36;;;;;;;5.50;4.63;;;19.10;47.90;;;20.39;40.73;97724.03;5082919;28;20035;-53
2023/06/15 07:37:05;;;;;;;7.53;5.28;;;19.20;47.80;;;20.48;40.24;97719.19;5080286;28;20051;-49
2023/06/15 07:39:33;;;;;;;6.68;5.15;;;19.30;47.80;;;20.56;40.26;97715.38;5079455;28;20114;-48
2023/06/15 07:42:01;;;;;;;6.15;5.35;;;19.30;47.80;;;20.61;40.17;97719.09;5080462;28;20049;-49
2023/06/15 07:44:29;;;;;;;6.28;5.47;;;19.40;47.40;;;20.65;39.90;97714.91;5082704;28;20039;-52
2023/06/15 07:46:56;;;;;;;8.75;5.40;;;19.50;47.30;;;20.70;40.23;97719.63;5055609;28;20049;-54
2023/06/15 07:49:24;;;;;;;4.97;4.47;;;19.50;47.40;;;20.79;40.10;97720.16;5082297;28;20415;-52
2023/06/15 07:52:11;;;;;;;7.10;4.43;;;19.60;47.20;;;20.88;39.50;97721.53;5079992;28;20036;-50
2023/06/15 07:54:38;;;;;;;5.30;4.80;;;19.70;46.80;;;20.92;39.72;97720.03;5053216;28;20045;-49
2023/06/15 07:57:06;;;;;;;6.68;5.07;;;19.80;46.70;;;20.96;39.69;97715.81;5079694;28;20495;-50
2023/06/15 07:59:33;;;;;;;7.05;4.40;;;19.80;46.70;;;21.01;39.77;97718.66;5083066;28;20051;-50
2023/06/15 08:02:02;;;;;;;6.25;4.60;;;19.90;46.80;;;21.09;39.07;97714.81;5081907;28;20043;-51
2023/06/15 08:04:30;;;;;;;5.35;4.85;;;19.90;46.10;;;21.15;39.02;97721.19;5079352;28;20040;-49
2023/06/15 08:06:58;;;;;;;6.50;5.15;;;20.00;46.00;;;21.22;38.94;97716.53;5052529;28;20048;-50
2023/06/15 08:09:25;;;;;;;8.07;5.10;;;20.10;45.80;;;21.25;39.21;97724.22;5081760;28;20044;-50
2023/06/15 08:11:53;;;;;;;7.68;5.00;;;20.10;46.10;;;21.29;39.15;97709.16;5085138;28;20147;-51
2023/06/15 08:14:20;;;;;;;8.50;5.35;;;20.10;46.20;;;21.31;39.19;97711.66;5078140;28;20036;-55
2023/06/15 08:16:48;;;;;;;10.68;5.40;;;20.20;46.00;;;21.33;39.06;97709.53;5085682;28;20048;-48
2023/06/15 08:19:16;;;;;;;6.63;5.25;;;20.20;46.00;;;21.36;38.78;97703.63;5060940;28;20048;-50
2023/06/15 08:21:43;;;;;;;10.73;6.18;;;20.30;45.80;;;21.43;38.98;97712.50;5069041;28;20416;-48
2023/06/15 08:24:12;;;;;;;5.68;4.88;;;20.30;46.10;;;21.49;39.28;97710.78;5040600;28;20074;-50
2023/06/15 08:26:42;;;;;;;5.80;5.03;;;20.30;46.10;;;21.52;39.23;97710.31;5068976;28;20040;-49
2023/06/15 08:29:10;;;;;;;11.10;5.60;;;20.40;46.00;;;21.58;38.72;97718.38;5068013;28;20063;-51
2023/06/15 08:31:50;;;;;;;9.35;5.35;;;20.50;45.70;;;21.63;38.88;97721.22;5062236;28;20036;-49
2023/06/15 08:34:18;;;;;;;6.00;5.40;;;20.50;46.60;;;21.68;38.61;97720.53;5046079;28;20037;-49
2023/06/15 08:36:47;;;;;;;6.60;5.05;;;20.50;45.60;;;21.76;38.38;97719.38;5068023;28;20029;-50
2023/06/15 08:39:14;;;;;;;7.30;5.13;;;20.60;45.20;;;21.82;38.06;97719.25;5069207;28;20368;-51
2023/06/15 08:41:45;;;;;;;7.10;5.43;;;20.70;44.60;;;21.88;37.78;97722.09;5047667;28;20049;-53
2023/06/15 08:44:14;;;;;;;7.57;5.45;;;20.80;44.40;;;21.93;38.12;97720.34;5066673;28;20044;-51
2023/06/15 08:46:42;;;;;;;5.60;4.93;;;20.80;44.70;;;21.98;37.88;97715.06;5066107;28;20049;-49
2023/06/15 08:49:10;;;;;;;7.22;5.50;;;20.80;44.50;;;22.04;37.48;97716.00;5043058;28;20041;-52
2023/06/15 08:51:39;;;;;;;6.20;4.55;;;20.90;44.00;;;22.09;37.63;97708.00;5032770;28;20044;-52
2023/06/15 08:54:08;;;;;;;5.50;4.82;;;20.90;44.00;;;22.15;37.83;97708.97;5046018;28;20044;-53
2023/06/15 08:56:38;;;;;;;5.57;4.95;;;21.00;44.10;;;22.20;37.87;97707.19;5044122;28;20044;-54
2023/06/15 08:59:06;;;;;;;7.88;4.85;;;21.00;44.20;;;22.27;37.86;97709.00;5068517;28;20415;-49
2023/06/15 09:01:40;;;;;;;7.25;5.35;;;21.20;44.20;;;22.29;36.98;97704.97;5068277;28;20056;-52
2023/06/15 09:04:08;;;;;;;5.47;4.45;;;21.20;42.80;;;22.32;36.82;97706.41;5049311;28;20045;-50
2023/06/15 09:06:36;;;;;;;6.13;5.53;;;21.20;42.90;;;22.34;37.40;97701.59;5046542;28;20048;-53
2023/06/15 09:09:04;;;;;;;6.55;5.10;;;21.30;43.40;;;22.38;37.11;97700.88;5044102;28;20052;-51
2023/06/15 09:11:39;;;;;;;8.25;5.18;;;21.30;43.20;;;22.44;36.95;97706.41;5068584;28;20040;-53
2023/06/15 09:14:09;;;;;;;6.47;5.03;;;21.40;42.80;;;22.48;36.87;97708.41;5033495;28;20412;-51
2023/06/15 09:16:38;;;;;;;9.10;5.32;;;21.40;43.00;;;22.55;36.96;97713.72;5067485;28;20048;-51
2023/06/15 09:19:11;;;;;;;7.72;5.03;;;21.40;42.70;;;22.59;36.29;97699.44;5067988;28;20055;-51
2023/06/15 09:21:48;;;;;;;;;;;21.50;42.10;;;22.61;36.43;97693.78;5062568;28;20049;-50
2023/06/15 09:24:23;;;;;;;8.10;4.85;;;21.50;41.90;;;22.71;36.48;97709.47;5057460;28;19928;-50
2023/06/15 09:26:51;;;;;;;6.68;4.85;;;21.50;42.70;;;22.74;36.39;97707.09;5064934;28;20522;-50
2023/06/15 09:29:19;;;;;;;5.20;4.00;;;21.60;42.60;;;22.79;36.43;97701.78;5064842;28;20045;-52
2023/06/15 09:31:46;;;;;;;6.20;4.82;;;21.70;41.40;;;22.82;35.90;97705.91;5065227;28;20420;-49
2023/06/15 09:34:14;;;;;;;4.65;4.15;;;21.70;41.10;;;22.80;35.35;97700.72;5054827;28;20044;-54
2023/06/15 09:36:47;;;;;;;5.13;4.45;;;21.80;40.60;;;22.83;35.12;97702.13;5030864;28;20063;-49
2023/06/15 09:39:22;;;;;;;6.57;4.68;;;21.80;40.20;;;22.85;35.43;97696.47;5059926;28;20075;-49
2023/06/15 09:42:01;;;;;;;6.03;4.93;;;21.80;40.90;;;22.88;35.55;97704.97;5034155;28;20060;-48
2023/06/15 09:44:28;;;;;;;5.30;4.78;;;21.80;40.20;;;22.89;35.23;97706.59;5067294;28;20492;-49
2023/06/15 09:47:01;;;;;;;5.13;4.18;;;21.80;40.80;;;22.95;35.48;97702.09;5066742;28;20052;-49
2023/06/15 09:49:29;;;;;;;5.13;4.63;;;21.80;40.50;;;23.02;35.58;97712.84;5068150;28;20052;-50
2023/06/15 09:51:58;;;;;;;4.90;4.40;;;21.90;40.60;;;23.10;34.91;97717.91;5068238;28;20295;-53
2023/06/15 09:54:29;;;;;;;7.13;4.82;;;22.00;39.80;;;23.15;34.18;97709.88;5068187;28;20036;-49
2023/06/15 09:56:57;;;;;;;5.72;4.50;;;22.10;39.00;;;23.21;34.09;97703.50;5039910;28;20483;-51
2023/06/15 09:59:25;;;;;;;4.70;4.13;;;22.20;39.00;;;23.28;34.32;97701.44;5042040;28;20032;-53
2023/06/15 10:01:55;;;;;;;4.68;3.97;;;22.30;39.10;;;23.38;34.00;97704.38;5066998;28;20041;-51
2023/06/15 10:04:31;;;;;;;4.53;4.00;;;22.40;38.30;;;23.48;33.47;97706.47;5069898;28;20051;-52
2023/06/15 10:07:03;;;;;;;4.88;3.67;;;22.50;37.00;;;23.59;32.50;97704.75;5033602;28;20059;-53
2023/06/15 10:09:48;;;;;;;4.75;4.25;;;22.60;35.50;;;23.62;32.13;97698.84;5083132;28;20423;-49
2023/06/15 10:12:22;;;;;;;4.38;3.97;;;22.80;35.20;;;23.57;32.29;97704.16;5058056;28;20047;-49
2023/06/15 10:15:07;;;;;;;4.63;4.07;;;22.80;36.20;;;23.75;32.16;97698.53;5084369;28;20040;-52
2023/06/15 10:17:37;;;;;;;5.57;3.72;;;22.80;35.60;;;23.90;32.00;97697.97;5051302;28;20039;-51
2023/06/15 10:20:17;;;;;;;4.82;4.22;;;23.00;36.00;;;24.06;32.17;97703.69;5083361;28;20044;-50
2023/06/15 10:22:59;;;;;;;6.00;5.40;;;23.20;36.00;;;24.11;31.85;97701.06;5070843;28;20050;-50
2023/06/15 10:25:28;;;;;;;5.45;5.05;;;23.20;35.10;;;24.20;31.91;97696.03;5058084;28;20047;-52
2023/06/15 10:27:58;;;;;;;4.63;4.10;;;23.20;35.70;;;24.30;31.90;97696.19;5036180;28;20555;-49
2023/06/15 10:30:38;;;;;;;4.50;4.10;;;23.40;36.20;;;24.38;31.21;97702.03;5081761;28;20059;-53